Time;durP1;ratioP1;P1;durP2;ratioP2;P2;SDS_P1;SDS_P2;PMS_P1;PMS_P2;Temp;Humidity;BMP_temperature;BMP_pressure;BME280_temperature;BME280_humidity;BME280_pressure;Samples;Min_cycle;Max_cycle;Signal;HPM_P1;HPM_P2
2022/07/03 08:36:40;;;;;;;1.77;0.77;;;;;;;;;;4974362;28;20233;-63
2022/07/03 08:39:06;;;;;;;2.43;1.00;;;;;;;;;;4992639;28;20730;-61
2022/07/03 08:41:33;;;;;;;2.07;0.80;;;;;;;;;;4989358;28;20235;-62
2022/07/03 08:44:00;;;;;;;2.03;1.00;;;;;;;;;;4991999;28;20239;-62
2022/07/03 08:46:27;;;;;;;1.83;0.90;;;;;;;;;;4964122;28;20707;-63
2022/07/03 08:48:53;;;;;;;1.60;0.70;;;;;;;;;;4990894;28;20231;-62
2022/07/03 08:51:21;;;;;;;1.80;0.80;;;;;;;;;;4986953;28;20224;-62
2022/07/03 08:53:48;;;;;;;1.93;1.00;;;;;;;;;;4987025;28;20250;-61
2022/07/03 08:56:14;;;;;;;2.00;0.73;;;;;;;;;;4985931;28;20234;-62
2022/07/03 08:58:42;;;;;;;3.73;0.90;;;;;;;;;;4988587;28;20315;-62
2022/07/03 09:01:09;;;;;;;1.70;1.03;;;;;;;;;;4985144;28;20230;-63
2022/07/03 09:03:35;;;;;;;1.90;0.67;;;;;;;;;;4987819;28;20315;-62
2022/07/03 09:06:02;;;;;;;4.03;0.80;;;;;;;;;;4986154;28;20249;-62
2022/07/03 09:08:31;;;;;;;1.60;0.97;;;;;;;;;;4988164;28;20524;-62
2022/07/03 09:10:58;;;;;;;1.07;0.70;;;;;;;;;;5001606;28;20232;-62
2022/07/03 09:13:25;;;;;;;2.23;1.00;;;;;;;;;;4987459;28;20223;-62
2022/07/03 09:15:52;;;;;;;3.40;0.90;;;;;;;;;;4986401;28;20223;-64
2022/07/03 09:18:21;;;;;;;15.40;4.17;;;;;;;;;;4967137;28;20220;-62
2022/07/03 09:20:48;;;;;;;2.23;0.90;;;;;;;;;;4982068;28;20220;-64
2022/07/03 09:23:15;;;;;;;3.40;1.00;;;;;;;;;;4985031;28;20234;-63
2022/07/03 09:25:52;;;;;;;1.97;1.00;;;;;;;;;;4983800;28;20224;-62
2022/07/03 09:28:22;;;;;;;2.87;0.93;;;;;;;;;;4983405;28;20247;-62
2022/07/03 09:30:55;;;;;;;4.07;0.97;;;;;;;;;;4980925;28;20236;-62
2022/07/03 09:33:22;;;;;;;2.53;0.87;;;;;;;;;;4968649;28;20231;-63
2022/07/03 09:36:06;;;;;;;2.17;0.83;;;;;;;;;;4998587;28;20234;-63
2022/07/03 09:38:35;;;;;;;1.17;0.80;;;;;;;;;;5002547;28;20332;-62
2022/07/03 09:41:02;;;;;;;1.63;0.70;;;;;;;;;;5000880;28;24667;-63
2022/07/03 09:43:32;;;;;;;1.33;0.83;;;;;;;;;;5002591;28;20255;-63
2022/07/03 09:46:00;;;;;;;2.73;0.83;;;;;;;;;;4966922;28;20232;-62
2022/07/03 09:48:29;;;;;;;3.30;0.90;;;;;;;;;;4988892;28;20273;-63
2022/07/03 09:51:20;;;;;;;1.60;0.90;;;;;;;;;;5002338;28;20220;-63
2022/07/03 09:53:49;;;;;;;2.10;1.00;;;;;;;;;;4976698;28;20586;-62
2022/07/03 09:56:24;;;;;;;2.10;1.00;;;;;;;;;;5000878;28;20232;-63
2022/07/03 09:59:12;;;;;;;2.17;0.97;;;;;;;;;;5004137;28;20232;-60
2022/07/03 10:01:41;;;;;;;2.77;1.00;;;;;;;;;;5002236;28;20247;-61
2022/07/03 10:04:15;;;;;;;2.87;1.23;;;;;;;;;;5002392;28;20668;-62
2022/07/03 10:06:48;;;;;;;3.37;1.20;;;;;;;;;;5001323;28;20306;-61
2022/07/03 10:09:34;;;;;;;2.40;0.87;;;;;;;;;;5001409;28;20229;-62
2022/07/03 10:12:03;;;;;;;3.03;1.13;;;;;;;;;;5003642;28;20705;-61
2022/07/03 10:14:31;;;;;;;1.47;0.97;;;;;;;;;;5001606;28;20231;-61
2022/07/03 10:17:02;;;;;;;1.60;0.90;;;;;;;;;;5002104;28;20271;-61
2022/07/03 10:19:30;;;;;;;3.17;1.23;;;;;;;;;;5001806;28;20249;-62
2022/07/03 10:22:02;;;;;;;2.60;1.10;;;;;;;;;;5003315;28;20264;-62
2022/07/03 10:24:29;;;;;;;2.20;0.80;;;;;;;;;;5000781;28;20257;-62
2022/07/03 10:26:56;;;;;;;10.40;2.80;;;;;;;;;;5003089;28;20288;-62
2022/07/03 10:29:23;;;;;;;4.03;1.10;;;;;;;;;;4983968;28;20230;-62
2022/07/03 10:31:55;;;;;;;3.20;0.97;;;;;;;;;;5001285;28;21076;-62
2022/07/03 10:34:22;;;;;;;3.60;1.00;;;;;;;;;;5002687;28;21216;-62
2022/07/03 10:37:02;;;;;;;4.90;1.03;;;;;;;;;;5001218;28;20285;-62
2022/07/03 10:39:38;;;;;;;2.93;1.23;;;;;;;;;;5000575;28;20309;-62
2022/07/03 10:45:03;;;;;;;1.20;0.80;;;;;;;;;;4985264;28;20764;-72
2022/07/03 10:47:50;;;;;;;4.33;1.13;;;;;;;;;;4999569;28;20229;-72
2022/07/03 10:50:21;;;;;;;2.63;0.90;;;;;;;;;;5000594;28;20230;-71
2022/07/03 10:52:47;;;;;;;3.07;1.10;;;;;;;;;;4982602;28;20775;-73
2022/07/03 10:55:15;;;;;;;0.83;0.73;;;;;;;;;;4951044;28;229520;-74
2022/07/03 10:57:42;;;;;;;1.90;1.00;;;;;;;;;;4997170;28;20233;-72
2022/07/03 11:00:13;;;;;;;1.70;1.10;;;;;;;;;;4997829;28;20687;-68
2022/07/03 11:02:40;;;;;;;1.83;1.07;;;;;;;;;;4998157;28;20240;-69
2022/07/03 11:05:20;;;;;;;2.83;0.80;;;;;;;;;;5002467;28;20307;-67
2022/07/03 11:07:50;;;;;;;2.40;1.00;;;;;;;;;;5000948;28;20228;-67
2022/07/03 11:10:34;;;;;;;1.93;0.90;;;;;;;;;;4999475;28;20221;-69
2022/07/03 11:13:03;;;;;;;1.40;1.03;;;;;;;;;;5001566;28;20230;-68
2022/07/03 11:15:39;;;;;;;2.53;1.03;;;;;;;;;;4986813;28;20238;-68
2022/07/03 11:18:11;;;;;;;3.40;0.80;;;;;;;;;;5000465;28;20301;-68
2022/07/03 11:20:58;;;;;;;1.20;0.90;;;;;;;;;;4998807;28;24657;-68
2022/07/03 11:23:25;;;;;;;1.50;0.90;;;;;;;;;;4999528;28;20665;-67
2022/07/03 11:25:53;;;;;;;1.90;0.90;;;;;;;;;;5001989;28;20311;-68
2022/07/03 11:28:32;;;;;;;2.17;0.90;;;;;;;;;;4982242;28;20252;-68
2022/07/03 11:31:16;;;;;;;2.33;0.90;;;;;;;;;;4999331;28;20283;-71
2022/07/03 11:33:44;;;;;;;1.13;0.80;;;;;;;;;;4988809;28;20239;-70
2022/07/03 11:36:11;;;;;;;1.50;0.90;;;;;;;;;;4982004;28;20238;-72
2022/07/03 11:38:38;;;;;;;1.13;0.80;;;;;;;;;;5000309;28;20237;-69
2022/07/03 11:41:08;;;;;;;1.83;0.90;;;;;;;;;;4999920;28;20226;-67
2022/07/03 11:43:35;;;;;;;1.83;0.80;;;;;;;;;;4998702;28;20246;-66
2022/07/03 11:46:26;;;;;;;2.97;1.00;;;;;;;;;;5000590;28;20312;-66
2022/07/03 11:50:03;;;;;;;1.67;0.80;;;;;;;;;;4913781;28;215032;-72
2022/07/03 11:52:50;;;;;;;2.00;0.90;;;;;;;;;;4933568;28;20243;-71
2022/07/03 11:55:18;;;;;;;1.63;0.83;;;;;;;;;;4960306;28;20748;-64
2022/07/03 11:57:49;;;;;;;1.57;0.80;;;;;;;;;;4958203;28;20258;-68
2022/07/03 12:00:15;;;;;;;2.13;0.80;;;;;;;;;;4933184;28;21289;-66
2022/07/03 12:02:51;;;;;;;3.23;1.00;;;;;;;;;;4924817;28;20228;-64
2022/07/03 12:05:18;;;;;;;3.13;1.00;;;;;;;;;;4928903;28;217065;-67
2022/07/03 12:08:01;;;;;;;2.93;1.00;;;;;;;;;;4920124;28;20247;-68
2022/07/03 12:10:38;;;;;;;2.10;0.90;;;;;;;;;;4936978;28;20224;-67
2022/07/03 12:13:17;;;;;;;1.57;0.93;;;;;;;;;;4941068;28;20228;-67
2022/07/03 12:16:04;;;;;;;3.67;1.20;;;;;;;;;;4927505;28;20791;-68
2022/07/03 12:18:44;;;;;;;2.07;1.03;;;;;;;;;;4922511;28;20246;-67
2022/07/03 12:21:11;;;;;;;1.33;0.90;;;;;;;;;;4982460;28;20301;-66
2022/07/03 12:23:47;;;;;;;2.13;1.10;;;;;;;;;;5000647;28;20231;-68
2022/07/03 12:26:14;;;;;;;3.03;1.10;;;;;;;;;;4989398;28;20391;-68
2022/07/03 12:28:41;;;;;;;2.53;1.10;;;;;;;;;;4996599;28;21088;-67
2022/07/03 12:31:08;;;;;;;1.33;0.90;;;;;;;;;;4985711;28;20230;-66
2022/07/03 12:33:35;;;;;;;1.37;1.00;;;;;;;;;;5000764;28;20713;-65
2022/07/03 12:36:05;;;;;;;1.27;1.10;;;;;;;;;;4998988;28;20231;-66
2022/07/03 12:38:33;;;;;;;2.67;1.30;;;;;;;;;;4999668;28;20246;-66
2022/07/03 12:41:03;;;;;;;1.97;1.00;;;;;;;;;;4979232;28;230337;-67
2022/07/03 12:43:39;;;;;;;1.23;0.77;;;;;;;;;;4998507;28;20227;-67
2022/07/03 12:46:15;;;;;;;3.20;1.07;;;;;;;;;;4993104;28;220444;-68
2022/07/03 12:48:49;;;;;;;1.97;1.10;;;;;;;;;;4991577;28;20461;-67
2022/07/03 12:51:16;;;;;;;1.63;1.00;;;;;;;;;;4997194;28;20235;-67
2022/07/03 12:53:43;;;;;;;1.70;1.00;;;;;;;;;;5000526;28;20317;-67
2022/07/03 12:56:10;;;;;;;1.77;1.00;;;;;;;;;;5002629;28;20921;-66
2022/07/03 13:01:26;;;;;;;1.70;1.07;;;;;;;;;;5002259;28;20238;-68
2022/07/03 13:03:53;;;;;;;1.73;1.10;;;;;;;;;;5005077;28;20579;-66
2022/07/03 13:06:20;;;;;;;2.17;0.93;;;;;;;;;;5003063;28;20230;-68
2022/07/03 13:08:51;;;;;;;1.33;0.90;;;;;;;;;;5004260;28;20244;-66
2022/07/03 13:11:25;;;;;;;2.67;1.00;;;;;;;;;;5002507;28;20227;-67
2022/07/03 13:13:52;;;;;;;1.83;1.10;;;;;;;;;;4986913;28;20253;-69
2022/07/03 13:16:25;;;;;;;1.67;1.10;;;;;;;;;;5004529;28;20295;-65
2022/07/03 13:18:59;;;;;;;2.00;1.07;;;;;;;;;;4957990;28;20253;-67
2022/07/03 13:21:26;;;;;;;1.10;1.00;;;;;;;;;;4985136;28;20315;-66
2022/07/03 13:23:52;;;;;;;2.00;1.23;;;;;;;;;;5003889;28;20244;-66
2022/07/03 13:26:19;;;;;;;1.83;1.10;;;;;;;;;;4984852;28;21114;-66
2022/07/03 13:28:46;;;;;;;2.03;1.20;;;;;;;;;;5003448;28;20255;-66
2022/07/03 13:31:13;;;;;;;3.17;1.07;;;;;;;;;;5002628;28;20240;-67
2022/07/03 13:33:39;;;;;;;1.70;1.10;;;;;;;;;;5003777;28;20942;-67
2022/07/03 13:36:07;;;;;;;1.80;1.10;;;;;;;;;;5002890;28;20239;-62
2022/07/03 13:38:34;;;;;;;2.90;1.20;;;;;;;;;;5003880;28;20242;-62
2022/07/03 13:41:00;;;;;;;2.40;1.23;;;;;;;;;;5003110;28;20239;-62
2022/07/03 13:43:27;;;;;;;2.80;1.40;;;;;;;;;;4994518;28;20238;-62
2022/07/03 13:45:54;;;;;;;2.60;1.30;;;;;;;;;;4996015;28;20230;-62
2022/07/03 13:48:21;;;;;;;2.57;1.37;;;;;;;;;;4988644;28;20263;-63
2022/07/03 13:50:48;;;;;;;4.00;1.13;;;;;;;;;;4995834;28;20881;-62
2022/07/03 13:53:14;;;;;;;2.10;1.20;;;;;;;;;;4998303;28;20246;-60
2022/07/03 13:55:41;;;;;;;3.23;1.30;;;;;;;;;;4995333;28;20262;-63
2022/07/03 13:58:08;;;;;;;1.50;1.07;;;;;;;;;;4988020;28;20590;-62
2022/07/03 14:00:34;;;;;;;1.47;0.93;;;;;;;;;;4995799;28;20240;-61
2022/07/03 14:03:19;;;;;;;10.67;2.87;;;;;;;;;;4982290;28;20243;-62
2022/07/03 14:05:47;;;;;;;2.17;0.93;;;;;;;;;;4995071;28;20238;-62
2022/07/03 14:08:14;;;;;;;2.07;1.00;;;;;;;;;;4996886;28;20259;-63
2022/07/03 14:10:41;;;;;;;2.07;0.87;;;;;;;;;;4978219;28;20223;-59
2022/07/03 14:13:12;;;;;;;1.77;0.90;;;;;;;;;;4995844;28;20307;-63
2022/07/03 14:15:39;;;;;;;3.03;1.13;;;;;;;;;;4994747;28;20234;-63
2022/07/03 14:18:06;;;;;;;3.63;1.00;;;;;;;;;;4978689;28;20215;-65
2022/07/03 14:20:35;;;;;;;2.43;1.10;;;;;;;;;;4995517;28;20308;-65
2022/07/03 14:23:02;;;;;;;2.37;1.00;;;;;;;;;;4995320;28;20375;-63
2022/07/03 14:25:29;;;;;;;2.07;1.10;;;;;;;;;;4980764;28;20637;-65
2022/07/03 14:33:26;;;;;;;3.43;1.03;;;;;;;;;;4995691;28;20219;-62
2022/07/03 14:35:52;;;;;;;3.13;1.07;;;;;;;;;;4990839;28;20243;-64
2022/07/03 14:38:19;;;;;;;4.97;1.30;;;;;;;;;;4994414;28;20234;-62
2022/07/03 14:40:46;;;;;;;2.13;1.40;;;;;;;;;;4994274;28;20227;-63
2022/07/03 14:43:30;;;;;;;2.10;1.20;;;;;;;;;;4992980;28;24167;-65
2022/07/03 14:45:57;;;;;;;3.60;1.10;;;;;;;;;;4998902;28;20234;-61
2022/07/03 14:48:24;;;;;;;4.10;1.20;;;;;;;;;;5002671;28;20231;-62
2022/07/03 14:50:51;;;;;;;1.47;1.00;;;;;;;;;;5001172;28;20232;-64
2022/07/03 14:53:20;;;;;;;3.43;1.07;;;;;;;;;;5002973;28;20227;-61
2022/07/03 14:55:47;;;;;;;6.90;1.40;;;;;;;;;;5001147;28;20238;-61
2022/07/03 14:58:18;;;;;;;3.43;1.10;;;;;;;;;;5002476;28;20223;-61
2022/07/03 15:00:46;;;;;;;3.10;1.10;;;;;;;;;;5000943;28;20227;-62
2022/07/03 15:03:16;;;;;;;2.50;1.17;;;;;;;;;;5000945;28;20317;-62
2022/07/03 15:05:45;;;;;;;3.20;1.37;;;;;;;;;;5000574;28;20231;-62
2022/07/03 15:08:15;;;;;;;5.10;1.20;;;;;;;;;;5002169;28;20234;-62
2022/07/03 15:10:42;;;;;;;20.93;5.10;;;;;;;;;;4987556;28;20249;-62
2022/07/03 15:13:08;;;;;;;3.37;1.10;;;;;;;;;;5002692;28;20234;-62
2022/07/03 15:15:35;;;;;;;5.33;1.93;;;;;;;;;;5000560;28;20236;-61
2022/07/03 15:18:03;;;;;;;3.30;1.03;;;;;;;;;;4984548;28;20258;-61
2022/07/03 15:20:30;;;;;;;9.93;2.83;;;;;;;;;;4981228;28;20224;-62
2022/07/03 15:22:57;;;;;;;1.90;1.17;;;;;;;;;;4981133;28;20248;-62
2022/07/03 15:25:24;;;;;;;3.13;1.33;;;;;;;;;;4969977;28;20254;-62
2022/07/03 15:27:52;;;;;;;2.13;1.10;;;;;;;;;;4980633;28;20238;-62
2022/07/03 15:30:19;;;;;;;2.97;1.13;;;;;;;;;;4996749;28;20240;-60
2022/07/03 15:32:46;;;;;;;4.13;1.83;;;;;;;;;;5000756;28;20237;-60
2022/07/03 15:35:13;;;;;;;3.03;1.33;;;;;;;;;;4993371;28;20239;-63
2022/07/03 15:37:49;;;;;;;3.23;1.27;;;;;;;;;;4983723;28;20282;-61
2022/07/03 15:40:16;;;;;;;1.70;1.03;;;;;;;;;;5000169;28;20228;-61
2022/07/03 15:42:48;;;;;;;2.60;1.00;;;;;;;;;;5001418;28;20226;-61
2022/07/03 15:45:36;;;;;;;4.47;1.50;;;;;;;;;;5000084;28;20233;-62
2022/07/03 15:48:26;;;;;;;4.80;1.80;;;;;;;;;;4970477;28;27227;-60
2022/07/03 15:51:13;;;;;;;3.90;1.30;;;;;;;;;;4997762;28;20237;-61
2022/07/03 15:53:40;;;;;;;5.37;1.37;;;;;;;;;;5000078;28;20460;-61
2022/07/03 15:56:07;;;;;;;3.27;1.10;;;;;;;;;;4975392;28;20230;-62
2022/07/03 15:58:35;;;;;;;2.37;1.13;;;;;;;;;;5000050;28;20229;-62
2022/07/03 16:03:52;;;;;;;2.90;1.23;;;;;;;;;;4982427;28;20580;-68
2022/07/03 16:06:19;;;;;;;1.67;0.97;;;;;;;;;;4978160;28;20295;-69
2022/07/03 16:08:47;;;;;;;3.43;1.30;;;;;;;;;;4982620;28;20226;-71
2022/07/03 16:11:14;;;;;;;3.13;1.30;;;;;;;;;;4982334;28;20995;-70
2022/07/03 16:13:41;;;;;;;4.10;1.30;;;;;;;;;;4999018;28;20233;-66
2022/07/03 16:16:08;;;;;;;3.07;1.40;;;;;;;;;;4999649;28;20589;-69
2022/07/03 16:18:34;;;;;;;2.60;1.20;;;;;;;;;;4999092;28;20225;-69
2022/07/03 16:21:01;;;;;;;3.83;1.50;;;;;;;;;;4979273;28;20224;-70
2022/07/03 16:23:28;;;;;;;2.07;1.30;;;;;;;;;;5001114;28;20233;-69
2022/07/03 16:25:55;;;;;;;4.03;1.30;;;;;;;;;;4999444;28;20244;-70
2022/07/03 16:28:22;;;;;;;2.87;1.50;;;;;;;;;;4982735;28;23394;-69
2022/07/03 16:30:49;;;;;;;2.90;1.40;;;;;;;;;;4970571;28;20245;-70
2022/07/03 16:33:22;;;;;;;2.30;1.40;;;;;;;;;;4987410;28;20241;-71
2022/07/03 16:35:58;;;;;;;1.63;1.20;;;;;;;;;;4989529;28;20238;-69
2022/07/03 16:38:40;;;;;;;3.23;1.40;;;;;;;;;;4982877;28;20590;-70
2022/07/03 16:41:06;;;;;;;2.53;1.27;;;;;;;;;;4968735;28;231419;-70
2022/07/03 16:43:33;;;;;;;3.87;1.57;;;;;;;;;;4998392;28;20228;-69
2022/07/03 16:46:01;;;;;;;2.73;1.50;;;;;;;;;;4989052;28;21008;-70
2022/07/03 16:48:28;;;;;;;3.50;1.47;;;;;;;;;;4994599;28;213621;-71
2022/07/03 16:51:00;;;;;;;3.97;1.67;;;;;;;;;;4984912;28;21058;-69
2022/07/03 16:53:27;;;;;;;3.10;1.47;;;;;;;;;;4971051;28;20353;-70
2022/07/03 16:55:53;;;;;;;3.77;1.50;;;;;;;;;;4987027;28;20239;-69
2022/07/03 16:58:20;;;;;;;2.47;1.37;;;;;;;;;;5002092;28;20383;-69
2022/07/03 17:00:47;;;;;;;3.37;1.50;;;;;;;;;;4986573;28;20247;-69
2022/07/03 17:03:16;;;;;;;3.00;1.47;;;;;;;;;;5002175;28;20245;-62
2022/07/03 17:06:00;;;;;;;3.73;1.40;;;;;;;;;;4988950;28;20223;-62
2022/07/03 17:08:27;;;;;;;3.47;1.60;;;;;;;;;;5003734;28;20247;-61
2022/07/03 17:10:54;;;;;;;2.73;1.60;;;;;;;;;;4983724;28;20373;-62
2022/07/03 17:13:21;;;;;;;2.67;1.40;;;;;;;;;;4984577;28;20242;-70
2022/07/03 17:15:47;;;;;;;2.30;1.30;;;;;;;;;;4999744;28;20306;-66
2022/07/03 17:18:14;;;;;;;3.30;1.30;;;;;;;;;;5004162;28;20281;-68
2022/07/03 17:20:43;;;;;;;4.03;1.47;;;;;;;;;;5001480;28;20227;-67
2022/07/03 17:23:16;;;;;;;2.90;1.50;;;;;;;;;;5002999;28;20306;-70
2022/07/03 17:25:44;;;;;;;3.73;1.37;;;;;;;;;;5002463;28;20314;-69
2022/07/03 17:28:29;;;;;;;3.87;1.63;;;;;;;;;;5003197;28;20297;-69
2022/07/03 17:31:00;;;;;;;4.87;1.70;;;;;;;;;;4979279;28;637759;-66
2022/07/03 17:33:26;;;;;;;3.20;1.50;;;;;;;;;;4967688;28;20695;-67
2022/07/03 17:36:04;;;;;;;2.10;1.37;;;;;;;;;;4977690;28;20235;-68
2022/07/03 17:38:32;;;;;;;6.47;1.83;;;;;;;;;;5003105;28;20780;-70
2022/07/03 17:41:14;;;;;;;4.87;1.57;;;;;;;;;;4960650;28;219890;-68
2022/07/03 17:44:00;;;;;;;2.43;1.53;;;;;;;;;;4982723;28;20227;-68
2022/07/03 17:46:26;;;;;;;3.10;1.47;;;;;;;;;;5002079;28;20223;-67
2022/07/03 17:48:54;;;;;;;2.50;1.60;;;;;;;;;;5003881;28;20293;-67
2022/07/03 17:51:21;;;;;;;3.83;1.40;;;;;;;;;;4988034;28;20227;-69
2022/07/03 17:53:48;;;;;;;2.50;1.30;;;;;;;;;;4980221;28;223346;-71
2022/07/03 17:56:17;;;;;;;1.50;1.37;;;;;;;;;;5002358;28;20223;-73
2022/07/03 17:58:45;;;;;;;3.33;1.60;;;;;;;;;;4987799;28;20234;-69
2022/07/03 18:01:12;;;;;;;2.83;1.50;;;;;;;;;;4971352;28;20235;-66
2022/07/03 18:03:39;;;;;;;2.93;1.90;;;;;;;;;;4986140;28;20235;-67
2022/07/03 18:06:07;;;;;;;5.10;1.73;;;;;;;;;;5001127;28;20713;-67
2022/07/03 18:08:40;;;;;;;4.57;1.37;;;;;;;;;;4985694;28;21086;-72
2022/07/03 18:11:30;;;;;;;2.87;1.63;;;;;;;;;;5000631;28;20219;-68
2022/07/03 18:14:03;;;;;;;4.30;1.77;;;;;;;;;;5000648;28;20230;-72
2022/07/03 18:16:48;;;;;;;3.37;1.50;;;;;;;;;;4972820;28;217862;-72
2022/07/03 18:19:14;;;;;;;3.33;1.60;;;;;;;;;;5001657;28;20219;-70
2022/07/03 18:21:41;;;;;;;2.90;1.50;;;;;;;;;;4950019;28;20314;-68
2022/07/03 18:24:12;;;;;;;4.70;2.00;;;;;;;;;;4978018;28;20251;-70
2022/07/03 18:26:42;;;;;;;4.47;1.67;;;;;;;;;;4983524;28;20241;-68
2022/07/03 18:29:10;;;;;;;3.57;1.90;;;;;;;;;;5001890;28;20590;-65
2022/07/03 18:31:38;;;;;;;3.80;1.67;;;;;;;;;;5002705;28;20234;-69
2022/07/03 18:34:05;;;;;;;5.03;1.77;;;;;;;;;;4994487;28;20226;-68
2022/07/03 18:36:34;;;;;;;2.97;1.90;;;;;;;;;;4963447;28;220104;-69
2022/07/03 18:39:01;;;;;;;2.57;1.80;;;;;;;;;;4985789;28;20326;-68
2022/07/03 18:41:28;;;;;;;3.87;1.90;;;;;;;;;;4964765;28;220574;-68
2022/07/03 18:43:55;;;;;;;5.73;1.80;;;;;;;;;;4972338;28;20326;-67
2022/07/03 18:46:22;;;;;;;2.80;1.80;;;;;;;;;;5001020;28;20625;-67
2022/07/03 18:48:49;;;;;;;5.40;1.87;;;;;;;;;;5002395;28;20712;-69
2022/07/03 18:51:19;;;;;;;3.93;1.73;;;;;;;;;;4998811;28;20223;-69
2022/07/03 18:54:22;;;;;;;2.23;1.80;;;;;;;;;;4983945;28;32157;-71
2022/07/03 18:56:51;;;;;;;5.97;2.20;;;;;;;;;;4979935;28;20232;-69
2022/07/03 18:59:37;;;;;;;5.07;2.00;;;;;;;;;;5000553;28;20229;-69
2022/07/03 19:02:05;;;;;;;3.27;1.70;;;;;;;;;;4983683;28;20223;-69
2022/07/03 19:04:50;;;;;;;2.33;1.80;;;;;;;;;;4969337;28;20239;-69
2022/07/03 19:07:29;;;;;;;2.27;1.90;;;;;;;;;;5000507;28;20322;-69
2022/07/03 19:10:13;;;;;;;4.83;2.23;;;;;;;;;;4997797;28;20742;-68
2022/07/03 19:12:42;;;;;;;4.67;2.53;;;;;;;;;;5001582;28;20302;-68
2022/07/03 19:15:30;;;;;;;4.67;2.93;;;;;;;;;;4998679;28;20302;-70
2022/07/03 19:17:57;;;;;;;9.40;2.90;;;;;;;;;;4998404;28;20589;-69
2022/07/03 19:20:27;;;;;;;7.70;2.63;;;;;;;;;;4999868;28;22400;-69
2022/07/03 19:22:54;;;;;;;5.27;2.53;;;;;;;;;;4999083;28;21054;-69
2022/07/03 19:25:38;;;;;;;4.30;2.40;;;;;;;;;;5000045;28;20226;-69
2022/07/03 19:28:07;;;;;;;5.77;2.27;;;;;;;;;;4982227;28;20227;-69
2022/07/03 19:30:35;;;;;;;4.43;2.50;;;;;;;;;;5000272;28;20239;-69
2022/07/03 19:33:01;;;;;;;3.40;2.27;;;;;;;;;;4995216;28;20316;-70
2022/07/03 19:35:28;;;;;;;3.90;2.30;;;;;;;;;;5011023;28;20231;-68
2022/07/03 19:37:55;;;;;;;5.07;2.70;;;;;;;;;;5000126;28;20230;-69
2022/07/03 19:40:22;;;;;;;4.17;2.23;;;;;;;;;;5020951;28;20241;-69
2022/07/03 19:42:49;;;;;;;3.60;2.30;;;;;;;;;;5015558;28;20257;-69
2022/07/03 19:45:16;;;;;;;4.33;2.27;;;;;;;;;;5010477;28;20238;-69
2022/07/03 19:48:01;;;;;;;6.97;2.67;;;;;;;;;;4996936;28;34854;-69
2022/07/03 19:50:37;;;;;;;6.30;2.50;;;;;;;;;;4966819;28;20235;-69
2022/07/03 19:54:39;;;;;;;4.80;2.50;;;;;;;;;;4977881;28;20683;-69
2022/07/03 19:57:32;;;;;;;7.13;2.70;;;;;;;;;;4990155;28;20284;-69
2022/07/03 20:00:09;;;;;;;5.30;2.43;;;;;;;;;;4999619;28;26242;-69
2022/07/03 20:03:07;;;;;;;5.97;2.90;;;;;;;;;;4982332;28;20226;-69
2022/07/03 20:06:01;;;;;;;4.30;2.50;;;;;;;;;;4965936;28;20227;-69
2022/07/03 20:08:41;;;;;;;8.33;2.57;;;;;;;;;;4989173;28;20755;-69
2022/07/03 20:11:30;;;;;;;5.03;2.83;;;;;;;;;;4997006;28;20625;-69
2022/07/03 20:14:41;;;;;;;6.50;3.30;;;;;;;;;;4974231;28;20222;-69
2022/07/03 20:17:49;;;;;;;9.27;3.10;;;;;;;;;;4998840;28;20319;-69
2022/07/03 20:21:02;;;;;;;8.60;4.23;;;;;;;;;;4998180;28;20235;-69
2022/07/03 20:27:58;;;;;;;8.37;3.80;;;;;;;;;;4997396;28;20277;-69
2022/07/03 20:30:57;;;;;;;8.17;3.83;;;;;;;;;;4967719;28;243068;-69
2022/07/03 20:34:20;;;;;;;9.17;4.00;;;;;;;;;;4973474;28;20226;-70
2022/07/03 20:37:17;;;;;;;6.97;4.20;;;;;;;;;;4962719;28;20223;-69
2022/07/03 20:40:25;;;;;;;8.53;4.30;;;;;;;;;;4959543;28;20230;-69
2022/07/03 20:43:25;;;;;;;8.27;4.20;;;;;;;;;;4979474;28;20255;-69
2022/07/03 20:46:14;;;;;;;7.03;3.70;;;;;;;;;;4978517;28;20247;-69
2022/07/03 20:49:02;;;;;;;7.30;3.93;;;;;;;;;;4980171;28;20286;-69
2022/07/03 20:51:48;;;;;;;7.53;3.63;;;;;;;;;;4953880;28;20238;-70
2022/07/03 20:54:28;;;;;;;4.83;3.47;;;;;;;;;;4953873;28;219701;-69
2022/07/03 20:57:36;;;;;;;;;;;;;;;;;;;;;
2022/07/03 21:04:44;;;;;;;7.07;4.27;;;;;;;;;;4880308;29;20302;-69
2022/07/03 21:07:39;;;;;;;5.90;3.70;;;;;;;;;;4881618;29;20247;-69
2022/07/03 21:14:33;;;;;;;5.63;4.30;;;;;;;;;;4870810;29;20302;-69
2022/07/03 21:17:43;;;;;;;5.83;4.40;;;;;;;;;;4876244;29;228995;-69
2022/07/03 21:24:33;;;;;;;6.33;4.23;;;;;;;;;;4846614;29;20241;-69
2022/07/03 21:27:23;;;;;;;8.73;4.63;;;;;;;;;;4831079;29;20228;-69
2022/07/03 21:31:09;;;;;;;5.70;4.27;;;;;;;;;;4846010;29;20238;-69
2022/07/03 21:34:09;;;;;;;8.60;4.37;;;;;;;;;;4797412;29;20241;-69
2022/07/03 21:40:33;;;;;;;5.73;4.33;;;;;;;;;;4778258;29;216007;-69
2022/07/03 21:43:20;;;;;;;8.77;4.27;;;;;;;;;;4798607;29;20238;-69
2022/07/03 21:46:41;;;;;;;6.37;4.20;;;;;;;;;;4871725;29;20355;-69
2022/07/03 21:52:49;;;;;;;5.20;4.20;;;;;;;;;;4877162;29;20642;-69
2022/07/03 21:55:28;;;;;;;5.13;3.93;;;;;;;;;;4872044;29;20223;-69
2022/07/03 21:58:35;;;;;;;4.67;4.03;;;;;;;;;;4860316;29;20294;-69
2022/07/03 22:01:34;;;;;;;7.47;4.37;;;;;;;;;;4860196;29;20231;-69
2022/07/03 22:08:04;;;;;;;8.93;3.83;;;;;;;;;;4867834;29;20623;-69
2022/07/03 22:11:13;;;;;;;4.77;3.63;;;;;;;;;;4925276;28;20235;-69
2022/07/03 22:14:46;;;;;;;5.10;3.57;;;;;;;;;;4969272;28;20792;-69
2022/07/03 22:17:53;;;;;;;6.37;3.60;;;;;;;;;;4980180;28;20230;-70
2022/07/03 22:20:48;;;;;;;6.77;3.60;;;;;;;;;;4981007;28;20235;-69
2022/07/03 22:34:38;;;;;;;7.70;4.33;;;;;;;;;;4977268;28;20331;-69
2022/07/03 22:37:43;;;;;;;6.50;4.30;;;;;;;;;;4981719;28;20224;-69
2022/07/03 22:41:07;;;;;;;7.77;4.50;;;;;;;;;;4980573;28;20223;-69
2022/07/03 22:43:49;;;;;;;6.13;4.73;;;;;;;;;;4972529;28;219610;-69
2022/07/03 22:47:11;;;;;;;5.93;4.50;;;;;;;;;;4962943;28;20223;-69
2022/07/03 22:50:33;;;;;;;6.37;4.40;;;;;;;;;;4980018;28;20297;-69
2022/07/03 22:53:25;;;;;;;5.90;4.97;;;;;;;;;;4963570;28;20219;-69
2022/07/03 22:56:17;;;;;;;5.80;4.60;;;;;;;;;;4958899;28;20252;-69
2022/07/03 22:58:55;;;;;;;7.60;4.60;;;;;;;;;;4980268;28;20235;-69
2022/07/03 23:01:39;;;;;;;9.00;4.60;;;;;;;;;;4967453;28;20379;-69
2022/07/03 23:04:41;;;;;;;6.47;4.13;;;;;;;;;;4942714;28;20225;-69
2022/07/03 23:07:47;;;;;;;6.17;4.20;;;;;;;;;;4967489;28;20224;-69
2022/07/03 23:10:36;;;;;;;4.50;4.10;;;;;;;;;;4964896;28;20251;-70
2022/07/03 23:13:33;;;;;;;4.97;4.10;;;;;;;;;;4964790;28;20592;-70
2022/07/03 23:16:26;;;;;;;4.27;3.63;;;;;;;;;;4961921;28;20635;-69
2022/07/03 23:19:18;;;;;;;5.47;4.13;;;;;;;;;;4974981;28;20223;-69
2022/07/03 23:22:11;;;;;;;5.90;3.67;;;;;;;;;;4970535;28;20253;-69
2022/07/03 23:25:12;;;;;;;4.67;3.80;;;;;;;;;;4969860;28;220837;-69
2022/07/03 23:27:47;;;;;;;6.43;3.73;;;;;;;;;;4980650;28;21343;-69
2022/07/03 23:30:40;;;;;;;6.17;3.70;;;;;;;;;;4963771;28;20236;-69
2022/07/03 23:33:38;;;;;;;6.73;3.70;;;;;;;;;;4981102;28;20239;-69
2022/07/03 23:36:21;;;;;;;5.63;4.20;;;;;;;;;;4995793;28;20306;-69
2022/07/03 23:39:06;;;;;;;5.20;4.03;;;;;;;;;;5000420;28;20238;-69
2022/07/03 23:42:12;;;;;;;6.80;4.33;;;;;;;;;;4975865;28;20591;-69
2022/07/03 23:45:21;;;;;;;7.60;5.63;;;;;;;;;;4998796;28;20219;-69
2022/07/03 23:48:03;;;;;;;6.13;5.47;;;;;;;;;;4973305;28;212743;-69
2022/07/03 23:50:58;;;;;;;7.63;5.00;;;;;;;;;;4982953;28;20255;-69
2022/07/03 23:53:42;;;;;;;7.83;5.37;;;;;;;;;;4998391;28;20252;-69
2022/07/03 23:56:19;;;;;;;8.87;5.37;;;;;;;;;;4985614;28;20335;-70
2022/07/03 23:59:13;;;;;;;6.40;5.30;;;;;;;;;;4984675;28;20310;-69
